Columbus Air Force Base
KCBM : now visible

Airfield :











YOU CAN JOIN US ON...

 
LOGIN :

Register | Disclaimer

   EN    FR    IT 

 









Legend :    VFR   Marginal VFR   IFR   Intensive IFR   Very Intensive IFR
Visi :
Ceiling :
>= 8 km
>= 3000ft
5 to 8 km
1000 to 3000 ft
1500m to 5 km
500 to 1000 ft
800 to 1500m
200 to 500 ft
< 800m
< 200 ft
Symbols :   Thunderstorms  Fog  Heavy snow  Heavy precipitations  Wind > 20 kt






- Airport Elevation : 219 ft


KCBM - Columbus Air Force Base

CURRENT METAR :
  • 171805Z AUTO 31011KT 10SM BKN028 06/M00 A3005 RMK AO2 SLP180 $

EXPIRED METARs :
  • 171756Z AUTO 30010KT 10SM BKN026 07/01 A3006 RMK AO2 SLP183 T00700007 10070 20018 50005 $
  • 171747Z AUTO 29008KT 10SM BKN026 06/00 A3006 RMK AO2 BKN V SCT SLP183 $
  • 171738Z AUTO 30008KT 10SM SCT024 06/00 A3006 RMK AO2 SLP183 $
  • 171656Z AUTO 27007KT 10SM BKN022 05/M00 A3006 RMK AO2 BKN V SCT SLP183 T00521002 $
  • 171629Z AUTO 30012G18KT 10SM SCT019 05/M00 A3006 RMK AO2 SLP183 $
  • 171556Z AUTO 32011KT 10SM BKN019 04/M01 A3005 RMK AO2 SLP180 T00391007 $

Expired Forecast.
KZME FIR / North America



MET'MAP, your aeronautical weather chart ! - Copyright ORBIFLY December 2007 - Disclaimer

ORBIFLY MET'MAP TEAM :

Programming & Development : Alexandra Zaïnal
Concept & original design : Baudouin d'Aumeries
Assistance for programming : Marc-Olivier Méhu
Technical & hardware support : Manuel Goepfert

Contact : metmap@orbifly.com




SOURCES & CREDITS :

   NOAA       Earth
Advisory